createdAt,value
2019-01-09T00:00:04.349Z,991.81
2019-01-09T00:01:02.154Z,991.77
2019-01-09T00:01:59.243Z,991.88
2019-01-09T00:02:55.457Z,991.88
2019-01-09T00:03:53.357Z,991.96
2019-01-09T00:04:50.509Z,991.98
2019-01-09T00:05:47.497Z,992.03
2019-01-09T00:06:43.665Z,991.91
2019-01-09T00:07:41.617Z,991.94
2019-01-09T00:08:37.859Z,991.97
2019-01-09T00:09:35.754Z,991.92
2019-01-09T00:10:32.035Z,991.87
2019-01-09T00:11:29.077Z,991.91
2019-01-09T00:12:26.100Z,991.93
2019-01-09T00:13:23.183Z,991.93
2019-01-09T00:14:20.196Z,992.05
2019-01-09T00:15:17.258Z,991.91
2019-01-09T00:16:14.356Z,991.93
2019-01-09T00:17:11.473Z,991.95
2019-01-09T00:18:08.482Z,991.87
2019-01-09T00:19:06.443Z,991.99
2019-01-09T00:20:03.487Z,992.00
2019-01-09T00:20:59.651Z,991.96
2019-01-09T00:21:57.612Z,991.94
2019-01-09T00:22:53.811Z,991.94
2019-01-09T00:23:50.848Z,991.95
2019-01-09T00:24:48.824Z,992.05
2019-01-09T00:25:45.005Z,992.10
2019-01-09T00:26:42.116Z,992.10
2019-01-09T00:27:39.107Z,992.00
2019-01-09T00:28:36.251Z,992.10
2019-01-09T00:29:33.281Z,992.18
2019-01-09T00:30:30.323Z,992.23
2019-01-09T00:31:27.503Z,992.21
2019-01-09T00:32:24.468Z,992.24
2019-01-09T00:33:22.406Z,992.18
2019-01-09T00:34:18.803Z,992.23
2019-01-09T00:35:15.724Z,992.14
2019-01-09T00:36:13.597Z,992.15
2019-01-09T00:37:09.770Z,992.13
2019-01-09T00:38:06.935Z,992.12
2019-01-09T00:39:04.930Z,992.10
2019-01-09T00:40:01.009Z,992.08
2019-01-09T00:40:58.106Z,991.96
2019-01-09T00:41:55.127Z,992.09
2019-01-09T00:42:52.195Z,992.06
2019-01-09T00:43:49.265Z,991.95
2019-01-09T00:44:47.209Z,992.02
2019-01-09T00:45:43.441Z,991.95
2019-01-09T00:46:41.328Z,991.92
2019-01-09T00:47:38.389Z,992.02
2019-01-09T00:48:34.667Z,991.91
2019-01-09T00:49:31.631Z,992.03
2019-01-09T00:50:29.669Z,991.98
2019-01-09T00:51:25.780Z,992.06
2019-01-09T00:52:22.837Z,991.99
2019-01-09T00:53:19.888Z,992.06
2019-01-09T00:54:16.976Z,992.11
2019-01-09T00:55:14.108Z,992.02
2019-01-09T00:56:11.982Z,992.07
2019-01-09T00:57:08.168Z,992.14
2019-01-09T00:58:05.261Z,992.13
2019-01-09T00:59:03.191Z,992.05
2019-01-09T00:59:59.410Z,992.04
2019-01-09T01:00:56.510Z,992.04
2019-01-09T01:01:54.689Z,992.04
2019-01-09T01:02:50.557Z,992.07
2019-01-09T01:03:48.583Z,992.10
2019-01-09T01:04:44.694Z,992.11
2019-01-09T01:05:46.224Z,992.11
2019-01-09T01:06:38.856Z,992.10
2019-01-09T01:07:35.946Z,992.04
2019-01-09T01:08:33.071Z,992.12
2019-01-09T01:09:30.035Z,992.20
2019-01-09T01:10:27.138Z,992.19
2019-01-09T01:11:24.155Z,992.16
2019-01-09T01:12:21.262Z,992.15
2019-01-09T01:13:18.279Z,992.09
2019-01-09T01:14:16.235Z,992.13
2019-01-09T01:15:14.296Z,992.16
2019-01-09T01:16:10.361Z,992.09
2019-01-09T01:17:06.582Z,992.04
2019-01-09T01:18:04.633Z,992.03
2019-01-09T01:19:01.729Z,992.15
2019-01-09T01:19:58.616Z,992.09
2019-01-09T01:20:54.839Z,992.15
2019-01-09T01:21:53.859Z,992.16
2019-01-09T01:22:49.842Z,992.08
2019-01-09T01:23:46.053Z,992.15
2019-01-09T01:24:43.148Z,992.09
2019-01-09T01:25:40.192Z,991.98
2019-01-09T01:26:38.083Z,992.06
2019-01-09T01:27:35.150Z,991.96
2019-01-09T01:28:31.337Z,992.12
2019-01-09T01:29:28.429Z,992.05
2019-01-09T01:30:26.608Z,992.06
2019-01-09T01:31:23.522Z,992.03
2019-01-09T01:32:20.620Z,992.05
2019-01-09T01:33:16.746Z,992.00
2019-01-09T01:34:14.617Z,991.95
2019-01-09T01:35:10.883Z,992.05
2019-01-09T01:36:07.852Z,992.05
2019-01-09T01:37:04.996Z,992.09
2019-01-09T01:38:02.890Z,992.00
2019-01-09T01:38:59.952Z,992.00
2019-01-09T01:39:56.177Z,992.13
2019-01-09T01:40:54.083Z,992.04
2019-01-09T01:41:50.264Z,992.03
2019-01-09T01:42:47.323Z,992.01
2019-01-09T01:43:45.281Z,992.03
2019-01-09T01:44:41.457Z,992.04
2019-01-09T01:45:38.533Z,991.92
2019-01-09T01:46:36.639Z,991.95
2019-01-09T01:47:33.681Z,992.00
2019-01-09T01:48:29.789Z,991.94
2019-01-09T01:49:26.780Z,991.97
2019-01-09T01:50:23.874Z,991.86
2019-01-09T01:51:21.004Z,991.98
2019-01-09T01:52:18.010Z,991.89
2019-01-09T01:53:15.928Z,991.85
2019-01-09T01:54:12.189Z,991.89
2019-01-09T01:55:10.079Z,991.94
2019-01-09T01:56:06.303Z,991.91
2019-01-09T01:57:03.401Z,991.93
2019-01-09T01:58:01.273Z,991.93
2019-01-09T01:58:57.461Z,991.92
2019-01-09T01:59:55.395Z,991.88
2019-01-09T02:00:51.601Z,991.96
2019-01-09T02:01:48.635Z,991.99
2019-01-09T02:02:45.793Z,992.13
2019-01-09T02:03:42.864Z,992.12
2019-01-09T02:04:40.868Z,992.18
2019-01-09T02:05:36.950Z,992.14
2019-01-09T02:06:35.857Z,992.13
2019-01-09T02:07:31.151Z,992.28
2019-01-09T02:08:28.120Z,992.36
2019-01-09T02:09:26.059Z,992.49
2019-01-09T02:10:22.230Z,992.56
2019-01-09T02:11:19.322Z,992.59
2019-01-09T02:12:17.260Z,992.58
2019-01-09T02:13:14.325Z,992.46
2019-01-09T02:14:10.527Z,992.59
2019-01-09T02:15:07.558Z,992.54
2019-01-09T02:16:04.715Z,992.50
2019-01-09T02:17:01.700Z,992.40
2019-01-09T02:17:59.651Z,992.35
2019-01-09T02:18:55.871Z,992.31
2019-01-09T02:19:52.910Z,992.41
2019-01-09T02:20:51.150Z,992.36
2019-01-09T02:21:47.913Z,992.36
2019-01-09T02:22:44.992Z,992.40
2019-01-09T02:23:41.214Z,992.41
2019-01-09T02:24:38.250Z,992.45
2019-01-09T02:25:36.172Z,992.45
2019-01-09T02:26:33.245Z,992.42
2019-01-09T02:27:30.315Z,992.42
2019-01-09T02:28:26.496Z,992.36
2019-01-09T02:29:24.531Z,992.40
2019-01-09T02:30:21.504Z,992.41
2019-01-09T02:31:18.577Z,992.43
2019-01-09T02:32:15.771Z,992.32
2019-01-09T02:33:11.844Z,992.23
2019-01-09T02:34:10.768Z,992.26
2019-01-09T02:35:06.011Z,992.31
2019-01-09T02:36:13.113Z,992.35
2019-01-09T02:37:00.966Z,992.29
2019-01-09T02:38:04.985Z,992.32
2019-01-09T02:38:54.268Z,992.32
2019-01-09T02:39:51.381Z,992.29
2019-01-09T02:40:48.402Z,992.21
2019-01-09T02:41:46.314Z,992.21
2019-01-09T02:42:42.492Z,992.17
2019-01-09T02:43:40.427Z,992.13
2019-01-09T02:44:37.671Z,992.11
2019-01-09T02:45:34.557Z,992.04
2019-01-09T02:46:31.640Z,992.11
2019-01-09T02:47:28.688Z,992.12
2019-01-09T02:48:25.755Z,992.14
2019-01-09T02:49:22.824Z,992.07
2019-01-09T02:50:19.893Z,992.21
2019-01-09T02:51:16.081Z,992.11
2019-01-09T02:52:14.017Z,992.23
2019-01-09T02:53:10.285Z,992.22
2019-01-09T02:54:08.150Z,992.20
2019-01-09T02:55:05.215Z,992.16
2019-01-09T02:56:02.290Z,992.27
2019-01-09T02:56:58.600Z,992.31
2019-01-09T02:57:57.103Z,992.32
2019-01-09T02:58:53.504Z,992.24
2019-01-09T02:59:49.753Z,992.22
2019-01-09T03:00:47.626Z,992.30
2019-01-09T03:01:44.991Z,992.28
2019-01-09T03:02:40.874Z,992.36
2019-01-09T03:03:38.013Z,992.24
2019-01-09T03:04:34.999Z,992.27
2019-01-09T03:05:32.955Z,992.25
2019-01-09T03:06:29.153Z,992.16
2019-01-09T03:07:26.273Z,992.12
2019-01-09T03:08:23.403Z,992.20
2019-01-09T03:09:21.208Z,992.17
2019-01-09T03:10:17.426Z,992.06
2019-01-09T03:11:15.530Z,992.18
2019-01-09T03:12:11.611Z,992.12
2019-01-09T03:13:08.587Z,992.01
2019-01-09T03:14:05.682Z,991.98
2019-01-09T03:15:02.719Z,992.10
2019-01-09T03:15:59.822Z,992.13
2019-01-09T03:16:56.844Z,991.99
2019-01-09T03:17:53.940Z,992.06
2019-01-09T03:18:51.037Z,992.04
2019-01-09T03:19:48.930Z,992.01
2019-01-09T03:20:45.996Z,991.97
2019-01-09T03:21:42.191Z,992.11
2019-01-09T03:22:40.128Z,992.01
2019-01-09T03:23:36.356Z,992.06
2019-01-09T03:24:33.415Z,991.95
2019-01-09T03:25:31.331Z,992.04
2019-01-09T03:26:28.395Z,991.98
2019-01-09T03:27:24.564Z,991.98
2019-01-09T03:28:21.661Z,992.04
2019-01-09T03:29:19.758Z,992.04
2019-01-09T03:30:16.783Z,992.09
2019-01-09T03:31:12.892Z,992.10
2019-01-09T03:32:10.288Z,992.03
2019-01-09T03:33:06.968Z,991.97
2019-01-09T03:34:04.101Z,992.01
2019-01-09T03:35:01.100Z,992.03
2019-01-09T03:35:58.181Z,991.96
2019-01-09T03:36:55.312Z,991.90
2019-01-09T03:37:53.197Z,991.90
2019-01-09T03:38:50.259Z,991.94
2019-01-09T03:39:46.484Z,991.92
2019-01-09T03:40:44.393Z,991.94
2019-01-09T03:41:41.452Z,991.97
2019-01-09T03:42:37.685Z,991.93
2019-01-09T03:43:35.575Z,991.99
2019-01-09T03:44:32.646Z,991.98
2019-01-09T03:45:29.712Z,992.01
2019-01-09T03:46:25.893Z,991.98
2019-01-09T03:47:23.025Z,992.02
2019-01-09T03:48:21.016Z,991.91
2019-01-09T03:49:17.979Z,991.94
2019-01-09T03:50:14.207Z,991.98
2019-01-09T03:51:12.112Z,991.96
2019-01-09T03:52:08.346Z,991.98
2019-01-09T03:53:05.452Z,991.98
2019-01-09T03:54:03.314Z,991.94
2019-01-09T03:54:59.476Z,992.01
2019-01-09T03:55:56.556Z,991.97
2019-01-09T03:56:54.505Z,991.86
2019-01-09T03:57:50.681Z,991.89
2019-01-09T03:58:47.784Z,991.92
2019-01-09T03:59:44.805Z,991.94
2019-01-09T04:00:41.904Z,991.83
2019-01-09T04:01:39.832Z,991.84
2019-01-09T04:02:36.901Z,991.84
2019-01-09T04:03:33.174Z,991.83
2019-01-09T04:04:31.029Z,991.86
2019-01-09T04:05:27.199Z,991.86
2019-01-09T04:06:24.272Z,991.81
2019-01-09T04:07:22.247Z,991.78
2019-01-09T04:08:18.429Z,991.83
2019-01-09T04:09:16.360Z,991.84
2019-01-09T04:10:12.562Z,991.79
2019-01-09T04:11:09.681Z,991.80
2019-01-09T04:12:07.552Z,991.80
2019-01-09T04:13:03.756Z,991.69
2019-01-09T04:14:01.993Z,991.78
2019-01-09T04:14:58.749Z,991.72
2019-01-09T04:15:55.831Z,991.67
2019-01-09T04:16:52.070Z,991.75
2019-01-09T04:17:49.958Z,991.77
2019-01-09T04:18:46.226Z,991.84
2019-01-09T04:19:44.089Z,991.69
2019-01-09T04:20:40.319Z,991.82
2019-01-09T04:21:37.388Z,991.77
2019-01-09T04:22:34.429Z,991.82
2019-01-09T04:23:31.464Z,991.85
2019-01-09T04:24:29.437Z,991.84
2019-01-09T04:25:25.644Z,991.86
2019-01-09T04:26:22.690Z,991.85
2019-01-09T04:27:20.616Z,991.88
2019-01-09T04:28:16.817Z,991.80
2019-01-09T04:29:14.758Z,991.83
2019-01-09T04:30:11.805Z,991.76
2019-01-09T04:31:08.041Z,991.84
2019-01-09T04:32:05.110Z,991.88
2019-01-09T04:33:02.146Z,991.75
2019-01-09T04:33:59.197Z,991.85
2019-01-09T04:34:56.341Z,991.80
2019-01-09T04:35:53.374Z,991.80
2019-01-09T04:36:52.046Z,991.77
2019-01-09T04:37:48.654Z,991.84
2019-01-09T04:38:44.545Z,991.71
2019-01-09T04:39:42.599Z,991.78
2019-01-09T04:40:38.657Z,991.91
2019-01-09T04:41:35.709Z,991.90
2019-01-09T04:42:32.861Z,991.90
2019-01-09T04:43:29.846Z,991.91
2019-01-09T04:44:26.996Z,991.90
2019-01-09T04:45:24.868Z,991.95
2019-01-09T04:46:21.082Z,991.96
2019-01-09T04:47:18.196Z,991.92
2019-01-09T04:48:16.063Z,992.03
2019-01-09T04:49:12.242Z,991.95
2019-01-09T04:50:10.195Z,992.04
2019-01-09T04:51:07.366Z,991.99
2019-01-09T04:52:03.500Z,992.06
2019-01-09T04:53:00.529Z,992.14
2019-01-09T04:53:59.355Z,992.09
2019-01-09T04:54:54.721Z,992.04
2019-01-09T04:55:52.595Z,992.03
2019-01-09T04:56:48.810Z,992.02
2019-01-09T04:57:46.724Z,991.98
2019-01-09T04:58:43.809Z,991.99
2019-01-09T04:59:40.866Z,991.98
2019-01-09T05:00:37.051Z,991.98
2019-01-09T05:01:34.090Z,992.01
2019-01-09T05:02:31.193Z,992.03
2019-01-09T05:03:29.128Z,992.05
2019-01-09T05:04:25.331Z,992.03
2019-01-09T05:05:22.400Z,991.91
2019-01-09T05:06:20.323Z,991.95
2019-01-09T05:07:16.516Z,991.96
2019-01-09T05:08:13.563Z,992.02
2019-01-09T05:09:11.530Z,991.97
2019-01-09T05:10:07.686Z,991.94
2019-01-09T05:11:04.775Z,991.94
2019-01-09T05:12:01.822Z,991.93
2019-01-09T05:12:58.954Z,991.93
2019-01-09T05:13:55.947Z,991.93
2019-01-09T05:14:54.904Z,991.97
2019-01-09T05:15:50.986Z,991.86
2019-01-09T05:16:47.172Z,991.88
2019-01-09T05:17:44.221Z,991.91
2019-01-09T05:18:41.391Z,991.75
2019-01-09T05:19:39.239Z,991.76
2019-01-09T05:20:35.502Z,991.73
2019-01-09T05:21:32.500Z,991.75
2019-01-09T05:22:30.444Z,991.75
2019-01-09T05:23:26.609Z,991.82
2019-01-09T05:24:23.717Z,991.76
2019-01-09T05:25:20.742Z,991.76
2019-01-09T05:26:18.699Z,991.76
2019-01-09T05:27:15.766Z,991.71
2019-01-09T05:28:12.833Z,991.78
2019-01-09T05:29:09.092Z,991.65
2019-01-09T05:30:06.151Z,991.77
2019-01-09T05:31:07.623Z,991.61
2019-01-09T05:32:00.210Z,991.63
2019-01-09T05:32:57.294Z,991.63
2019-01-09T05:33:54.364Z,991.71
2019-01-09T05:34:51.402Z,991.55
2019-01-09T05:35:49.354Z,991.63
2019-01-09T05:36:46.417Z,991.69
2019-01-09T05:37:42.628Z,991.49
2019-01-09T05:38:40.561Z,991.56
2019-01-09T05:39:39.774Z,991.59
2019-01-09T05:40:33.827Z,991.47
2019-01-09T05:41:30.912Z,991.44
2019-01-09T05:42:29.816Z,991.46
2019-01-09T05:43:25.004Z,991.44
2019-01-09T05:44:22.158Z,991.45
2019-01-09T05:45:19.196Z,991.42
2019-01-09T05:46:16.255Z,991.48
2019-01-09T05:47:13.330Z,991.58
2019-01-09T05:48:10.368Z,991.50
2019-01-09T05:49:08.284Z,991.45
2019-01-09T05:50:04.522Z,991.47
2019-01-09T05:51:01.571Z,991.48
2019-01-09T05:51:58.620Z,991.45
2019-01-09T05:52:55.769Z,991.52
2019-01-09T05:53:52.800Z,991.37
2019-01-09T05:54:50.689Z,991.45
2019-01-09T05:55:46.946Z,991.46
2019-01-09T05:56:43.949Z,991.42
2019-01-09T05:57:41.880Z,991.50
2019-01-09T05:58:38.074Z,991.50
2019-01-09T05:59:36.137Z,991.56
2019-01-09T06:00:32.213Z,991.50
2019-01-09T06:01:30.141Z,991.46
2019-01-09T06:02:27.980Z,991.54
2019-01-09T06:03:23.653Z,991.50
2019-01-09T06:04:20.643Z,991.52
2019-01-09T06:05:18.407Z,991.51
2019-01-09T06:06:14.667Z,991.58
2019-01-09T06:07:18.319Z,991.59
2019-01-09T06:08:09.119Z,991.55
2019-01-09T06:09:05.797Z,991.51
2019-01-09T06:10:02.841Z,991.55
2019-01-09T06:10:59.908Z,991.63
2019-01-09T06:11:57.298Z,991.50
2019-01-09T06:12:54.056Z,991.70
2019-01-09T06:13:52.009Z,991.61
2019-01-09T06:14:48.278Z,991.69
2019-01-09T06:15:46.188Z,991.65
2019-01-09T06:16:42.542Z,991.70
2019-01-09T06:17:40.261Z,991.80
2019-01-09T06:18:36.462Z,991.73
2019-01-09T06:19:34.395Z,991.84
2019-01-09T06:20:30.567Z,991.86
2019-01-09T06:21:27.713Z,991.89
2019-01-09T06:22:25.598Z,991.90
2019-01-09T06:23:21.821Z,991.97
2019-01-09T06:24:18.826Z,992.05
2019-01-09T06:25:16.090Z,992.08
2019-01-09T06:26:12.989Z,992.06
2019-01-09T06:27:10.135Z,992.13
2019-01-09T06:28:07.163Z,992.06
2019-01-09T06:29:04.195Z,992.15
2019-01-09T06:30:01.249Z,992.15
2019-01-09T06:30:58.291Z,992.12
2019-01-09T06:31:56.259Z,990.13
2019-01-09T06:32:52.531Z,992.17
2019-01-09T06:33:49.485Z,992.16
2019-01-09T06:34:46.573Z,992.04
2019-01-09T06:35:43.677Z,992.11
2019-01-09T06:36:40.715Z,992.09
2019-01-09T06:37:37.751Z,992.06
2019-01-09T06:38:35.711Z,992.03
2019-01-09T06:39:31.930Z,992.00
2019-01-09T06:40:29.858Z,991.99
2019-01-09T06:41:26.382Z,992.02
2019-01-09T06:42:23.141Z,992.00
2019-01-09T06:43:21.040Z,991.98
2019-01-09T06:44:18.276Z,991.94
2019-01-09T06:45:15.629Z,992.08
2019-01-09T06:46:11.594Z,992.12
2019-01-09T06:47:08.441Z,992.07
2019-01-09T06:48:05.488Z,992.09
2019-01-09T06:49:02.621Z,992.07
2019-01-09T06:50:00.505Z,992.10
2019-01-09T06:50:57.624Z,992.22
2019-01-09T06:51:53.747Z,992.19
2019-01-09T06:52:50.823Z,992.22
2019-01-09T06:53:48.763Z,992.21
2019-01-09T06:54:45.837Z,992.22
2019-01-09T06:55:42.062Z,992.24
2019-01-09T06:56:39.974Z,992.27
2019-01-09T06:57:36.164Z,992.24
2019-01-09T06:58:34.092Z,992.26
2019-01-09T06:59:30.276Z,992.30
2019-01-09T07:00:28.248Z,992.29
2019-01-09T07:01:25.293Z,992.28
2019-01-09T07:02:22.323Z,992.33
2019-01-09T07:03:19.538Z,992.24
2019-01-09T07:04:16.502Z,992.29
2019-01-09T07:05:13.614Z,992.29
2019-01-09T07:06:09.762Z,992.23
2019-01-09T07:07:06.828Z,992.23
2019-01-09T07:08:03.873Z,992.29
2019-01-09T07:09:00.932Z,992.19
2019-01-09T07:09:58.068Z,992.14
2019-01-09T07:10:55.085Z,992.08
2019-01-09T07:11:52.162Z,992.18
2019-01-09T07:12:49.283Z,992.12
2019-01-09T07:13:46.269Z,992.18
2019-01-09T07:14:43.327Z,992.31
2019-01-09T07:15:40.400Z,992.31
2019-01-09T07:16:37.538Z,992.29
2019-01-09T07:17:35.421Z,992.30
2019-01-09T07:18:32.500Z,992.23
2019-01-09T07:19:28.728Z,992.35
2019-01-09T07:20:25.771Z,992.36
2019-01-09T07:21:22.869Z,992.21
2019-01-09T07:22:20.759Z,992.39
2019-01-09T07:23:17.008Z,992.39
2019-01-09T07:24:14.887Z,992.44
2019-01-09T07:25:11.281Z,992.37
2019-01-09T07:26:08.210Z,992.37
2019-01-09T07:27:05.213Z,992.34
2019-01-09T07:28:02.283Z,992.38
2019-01-09T07:28:59.321Z,992.37
2019-01-09T07:29:57.397Z,992.45
2019-01-09T07:30:54.445Z,992.44
2019-01-09T07:31:50.525Z,992.49
2019-01-09T07:32:47.602Z,992.57
2019-01-09T07:33:44.678Z,992.44
2019-01-09T07:34:41.777Z,992.39
2019-01-09T07:35:38.783Z,992.49
2019-01-09T07:36:35.872Z,992.52
2019-01-09T07:37:33.253Z,992.55
2019-01-09T07:38:30.002Z,992.54
2019-01-09T07:39:27.093Z,992.46
2019-01-09T07:40:24.135Z,992.47
2019-01-09T07:41:22.064Z,992.50
2019-01-09T07:42:18.270Z,992.56
2019-01-09T07:43:15.388Z,992.51
2019-01-09T07:44:12.394Z,992.53
2019-01-09T07:45:09.468Z,992.53
2019-01-09T07:46:06.600Z,992.64
2019-01-09T07:47:04.460Z,992.54
2019-01-09T07:48:01.533Z,992.46
2019-01-09T07:48:59.610Z,992.56
2019-01-09T07:49:54.854Z,992.61
2019-01-09T07:50:51.889Z,992.49
2019-01-09T07:51:48.988Z,992.51
2019-01-09T07:52:46.129Z,992.47
2019-01-09T07:53:43.116Z,992.49
2019-01-09T07:54:40.142Z,992.57
2019-01-09T07:55:37.159Z,992.59
2019-01-09T07:56:34.361Z,992.50
2019-01-09T07:57:31.302Z,992.47
2019-01-09T07:58:29.706Z,992.51
2019-01-09T07:59:25.471Z,992.64
2019-01-09T08:00:23.447Z,992.50
2019-01-09T08:01:20.449Z,992.58
2019-01-09T08:02:16.702Z,992.58
2019-01-09T08:03:14.582Z,992.62
2019-01-09T08:04:10.850Z,992.58
2019-01-09T08:05:07.861Z,992.62
2019-01-09T08:06:05.778Z,992.60
2019-01-09T08:07:02.859Z,992.61
2019-01-09T08:07:59.021Z,992.65
2019-01-09T08:08:56.121Z,992.64
2019-01-09T08:09:54.043Z,992.52
2019-01-09T08:10:51.110Z,992.64
2019-01-09T08:11:48.167Z,992.60
2019-01-09T08:12:45.240Z,992.57
2019-01-09T08:13:41.510Z,992.70
2019-01-09T08:14:39.381Z,992.70
2019-01-09T08:15:35.543Z,992.64
2019-01-09T08:16:32.610Z,992.70
2019-01-09T08:17:30.572Z,992.64
2019-01-09T08:18:27.638Z,992.59
2019-01-09T08:19:24.701Z,992.69
2019-01-09T08:20:20.966Z,992.74
2019-01-09T08:21:17.973Z,992.68
2019-01-09T08:22:16.091Z,992.69
2019-01-09T08:23:12.971Z,992.74
2019-01-09T08:24:10.057Z,992.77
2019-01-09T08:25:07.094Z,992.67
2019-01-09T08:26:04.161Z,992.76
2019-01-09T08:27:01.229Z,992.78
2019-01-09T08:27:58.290Z,992.74
2019-01-09T08:28:55.371Z,992.79
2019-01-09T08:29:52.433Z,992.80
2019-01-09T08:30:49.491Z,992.90
2019-01-09T08:31:46.549Z,992.77
2019-01-09T08:32:43.627Z,992.79
2019-01-09T08:33:41.689Z,992.79
2019-01-09T08:34:37.806Z,992.86
2019-01-09T08:35:34.813Z,992.78
2019-01-09T08:36:31.885Z,992.91
2019-01-09T08:37:28.160Z,992.90
2019-01-09T08:38:25.216Z,992.79
2019-01-09T08:39:23.095Z,992.84
2019-01-09T08:40:19.280Z,992.96
2019-01-09T08:41:17.240Z,992.88
2019-01-09T08:42:14.282Z,992.89
2019-01-09T08:43:11.353Z,992.90
2019-01-09T08:44:08.413Z,992.86
2019-01-09T08:45:05.621Z,992.91
2019-01-09T08:46:02.545Z,992.88
2019-01-09T08:46:59.607Z,992.87
2019-01-09T08:47:57.146Z,992.89
2019-01-09T08:48:53.748Z,992.84
2019-01-09T08:49:50.814Z,992.85
2019-01-09T08:50:47.883Z,992.88
2019-01-09T08:51:44.966Z,992.90
2019-01-09T08:52:42.008Z,992.85
2019-01-09T08:53:39.078Z,992.90
2019-01-09T08:54:36.152Z,992.93
2019-01-09T08:55:33.211Z,992.93
2019-01-09T08:56:30.266Z,992.96
2019-01-09T08:57:27.343Z,992.91
2019-01-09T08:58:24.399Z,993.02
2019-01-09T08:59:21.596Z,992.99
2019-01-09T09:00:18.534Z,993.00
2019-01-09T09:01:15.599Z,993.03
2019-01-09T09:02:12.659Z,993.17
2019-01-09T09:03:09.729Z,993.03
2019-01-09T09:04:06.795Z,993.20
2019-01-09T09:05:04.170Z,993.10
2019-01-09T09:06:00.931Z,993.20
2019-01-09T09:06:57.160Z,993.19
2019-01-09T09:07:55.060Z,993.13
2019-01-09T09:08:52.139Z,993.24
2019-01-09T09:09:49.214Z,993.17
2019-01-09T09:10:46.249Z,993.26
2019-01-09T09:11:43.329Z,993.23
2019-01-09T09:12:40.411Z,993.18
2019-01-09T09:13:37.445Z,993.18
2019-01-09T09:14:34.519Z,993.20
2019-01-09T09:15:31.585Z,993.23
2019-01-09T09:16:36.403Z,993.30
2019-01-09T09:17:25.720Z,993.30
2019-01-09T09:18:22.871Z,993.22
2019-01-09T09:19:19.846Z,993.29
2019-01-09T09:20:17.005Z,993.35
2019-01-09T09:21:14.023Z,993.36
2019-01-09T09:22:11.047Z,993.25
2019-01-09T09:23:08.115Z,993.31
2019-01-09T09:24:05.190Z,993.41
2019-01-09T09:25:03.261Z,993.37
2019-01-09T09:25:59.332Z,993.42
2019-01-09T09:26:56.373Z,993.41
2019-01-09T09:27:53.602Z,993.38
2019-01-09T09:28:50.512Z,993.28
2019-01-09T09:29:47.571Z,993.35
2019-01-09T09:30:44.656Z,993.40
2019-01-09T09:31:41.706Z,993.40
2019-01-09T09:32:38.802Z,993.38
2019-01-09T09:33:35.851Z,993.48
2019-01-09T09:34:32.905Z,993.36
2019-01-09T09:35:29.976Z,993.49
2019-01-09T09:36:27.032Z,993.44
2019-01-09T09:37:24.108Z,993.44
2019-01-09T09:38:21.171Z,993.49
2019-01-09T09:39:18.232Z,993.43
2019-01-09T09:40:15.583Z,993.57
2019-01-09T09:41:12.370Z,993.54
2019-01-09T09:42:09.430Z,993.49
2019-01-09T09:43:06.511Z,993.45
2019-01-09T09:44:03.568Z,993.52
2019-01-09T09:45:00.638Z,993.51
2019-01-09T09:45:57.758Z,993.62
2019-01-09T09:46:54.762Z,993.58
2019-01-09T09:47:51.819Z,993.66
2019-01-09T09:48:48.890Z,993.60
2019-01-09T09:49:45.965Z,993.63
2019-01-09T09:50:42.158Z,993.60
2019-01-09T09:51:40.543Z,993.59
2019-01-09T09:52:38.162Z,993.62
2019-01-09T09:53:34.225Z,993.61
2019-01-09T09:54:31.286Z,993.75
2019-01-09T09:55:28.811Z,993.72
2019-01-09T09:56:25.412Z,993.65
2019-01-09T09:57:22.493Z,993.64
2019-01-09T09:58:19.564Z,993.70
2019-01-09T09:59:16.618Z,993.76
2019-01-09T10:00:13.699Z,993.64
2019-01-09T10:01:10.756Z,993.68
2019-01-09T10:02:07.815Z,993.76
2019-01-09T10:03:04.879Z,993.70
2019-01-09T10:04:01.941Z,993.87
2019-01-09T10:04:59.028Z,993.74
2019-01-09T10:05:56.082Z,993.74
2019-01-09T10:06:53.607Z,993.75
2019-01-09T10:07:50.212Z,993.79
2019-01-09T10:08:47.279Z,993.80
2019-01-09T10:09:45.341Z,993.75
2019-01-09T10:10:41.405Z,993.83
2019-01-09T10:11:38.493Z,993.85
2019-01-09T10:12:35.584Z,993.83
2019-01-09T10:13:32.776Z,993.84
2019-01-09T10:14:29.665Z,993.85
2019-01-09T10:15:26.733Z,993.85
2019-01-09T10:16:23.806Z,993.85
2019-01-09T10:17:20.903Z,993.84
2019-01-09T10:18:17.932Z,993.88
2019-01-09T10:19:14.999Z,993.89
2019-01-09T10:20:12.070Z,993.95
2019-01-09T10:21:09.137Z,993.89
2019-01-09T10:22:06.200Z,993.98
2019-01-09T10:23:03.263Z,993.97
2019-01-09T10:24:00.641Z,993.79
2019-01-09T10:24:57.400Z,993.99
2019-01-09T10:25:54.467Z,993.96
2019-01-09T10:26:51.546Z,994.01
2019-01-09T10:27:48.598Z,993.92
2019-01-09T10:28:45.661Z,993.93
2019-01-09T10:29:42.730Z,993.96
2019-01-09T10:30:39.797Z,993.91
2019-01-09T10:31:36.868Z,993.92
2019-01-09T10:32:33.931Z,993.97
2019-01-09T10:33:30.995Z,993.93
2019-01-09T10:34:28.059Z,993.85
2019-01-09T10:35:25.114Z,993.87
2019-01-09T10:36:22.195Z,993.87
2019-01-09T10:37:19.262Z,993.91
2019-01-09T10:38:16.333Z,993.93
2019-01-09T10:39:13.387Z,993.78
2019-01-09T10:40:10.451Z,993.92
2019-01-09T10:41:07.517Z,993.90
2019-01-09T10:42:04.583Z,993.91
2019-01-09T10:43:01.701Z,993.88
2019-01-09T10:43:58.716Z,993.90
2019-01-09T10:44:55.780Z,993.90
2019-01-09T10:45:52.851Z,993.91
2019-01-09T10:46:49.919Z,993.97
2019-01-09T10:47:46.984Z,993.88
2019-01-09T10:48:44.046Z,993.94
2019-01-09T10:49:41.105Z,993.87
2019-01-09T10:50:38.176Z,993.90
2019-01-09T10:51:35.246Z,993.92
2019-01-09T10:52:32.316Z,994.02
2019-01-09T10:53:29.371Z,993.95
2019-01-09T10:54:26.441Z,993.98
2019-01-09T10:55:23.504Z,993.99
2019-01-09T10:56:20.568Z,994.02
2019-01-09T10:57:17.635Z,994.03
2019-01-09T10:58:15.008Z,993.98
2019-01-09T10:59:11.772Z,994.02
2019-01-09T11:00:08.837Z,994.14
2019-01-09T11:01:05.907Z,994.04
2019-01-09T11:02:02.986Z,993.98
2019-01-09T11:03:00.029Z,994.05
2019-01-09T11:03:57.094Z,994.11
2019-01-09T11:04:54.164Z,994.10
2019-01-09T11:05:51.230Z,994.04
2019-01-09T11:06:48.292Z,994.11
2019-01-09T11:07:45.852Z,994.15
2019-01-09T11:08:46.911Z,994.08
2019-01-09T11:09:39.493Z,994.10
2019-01-09T11:10:36.555Z,994.01
2019-01-09T11:11:34.623Z,994.05
2019-01-09T11:12:30.685Z,994.02
2019-01-09T11:13:27.754Z,994.14
2019-01-09T11:14:24.824Z,994.09
2019-01-09T11:15:22.207Z,994.05
2019-01-09T11:16:18.951Z,994.06
2019-01-09T11:17:16.029Z,994.07
2019-01-09T11:18:13.088Z,994.03
2019-01-09T11:19:10.164Z,993.95
2019-01-09T11:20:07.212Z,994.02
2019-01-09T11:21:04.286Z,993.92
2019-01-09T11:22:01.352Z,993.99
2019-01-09T11:22:58.415Z,993.95
2019-01-09T11:23:55.608Z,994.00
2019-01-09T11:24:52.547Z,993.95
2019-01-09T11:25:49.609Z,993.92
2019-01-09T11:26:46.678Z,993.90
2019-01-09T11:27:43.751Z,993.94
2019-01-09T11:28:41.806Z,993.99
2019-01-09T11:29:37.871Z,993.94
2019-01-09T11:30:34.941Z,993.92
2019-01-09T11:31:32.007Z,993.93
2019-01-09T11:32:29.079Z,993.94
2019-01-09T11:33:26.138Z,993.88
2019-01-09T11:34:23.398Z,993.96
2019-01-09T11:35:20.278Z,993.94
2019-01-09T11:36:17.363Z,993.97
2019-01-09T11:37:14.399Z,994.01
2019-01-09T11:38:11.596Z,994.02
2019-01-09T11:39:08.541Z,993.98
2019-01-09T11:40:05.602Z,993.85
2019-01-09T11:41:02.668Z,994.05
2019-01-09T11:41:59.727Z,993.89
2019-01-09T11:42:57.115Z,994.00
2019-01-09T11:43:53.867Z,993.86
2019-01-09T11:44:50.936Z,993.97
2019-01-09T11:45:47.170Z,993.95
2019-01-09T11:46:45.073Z,993.95
2019-01-09T11:47:42.152Z,993.93
2019-01-09T11:48:39.192Z,994.01
2019-01-09T11:49:36.253Z,993.91
2019-01-09T11:50:33.315Z,993.89
2019-01-09T11:51:30.405Z,993.93